createdAt,value
2023-01-19T00:00:21.437Z,100023.16
2023-01-19T00:02:50.714Z,100024.97
2023-01-19T00:05:17.645Z,100023.16
2023-01-19T00:07:47.509Z,100019.72
2023-01-19T00:10:14.341Z,100012.88
2023-01-19T00:12:41.720Z,100006.03
2023-01-19T00:15:08.633Z,100030.78
2023-01-19T00:17:35.549Z,100033.28
2023-01-19T00:20:03.813Z,100049.72
2023-01-19T00:22:31.346Z,100047.97
2023-01-19T00:24:58.590Z,100039.34
2023-01-19T00:27:25.736Z,100034.38
2023-01-19T00:29:52.827Z,100033.47
2023-01-19T00:32:20.307Z,100039.47
2023-01-19T00:34:49.999Z,100033.47
2023-01-19T00:37:17.407Z,100036.94
2023-01-19T00:39:44.979Z,100035.13
2023-01-19T00:42:30.998Z,100032.59
2023-01-19T00:44:58.383Z,100030.72
2023-01-19T00:47:25.195Z,100036.81
2023-01-19T00:49:52.760Z,100033.28
2023-01-19T00:52:19.731Z,100033.25
2023-01-19T00:54:46.451Z,100027.25
2023-01-19T00:57:15.102Z,100038.38
2023-01-19T00:59:41.618Z,100039.19
2023-01-19T01:02:08.811Z,100043.38
2023-01-19T01:04:35.541Z,100040.06
2023-01-19T01:07:02.565Z,100035.03
2023-01-19T01:09:30.470Z,100031.50
2023-01-19T01:11:57.251Z,100039.94
2023-01-19T01:14:24.407Z,100037.50
2023-01-19T01:16:51.490Z,100045.31
2023-01-19T01:19:18.975Z,100038.44
2023-01-19T01:21:46.039Z,100042.88
2023-01-19T01:24:13.161Z,100044.44
2023-01-19T01:26:40.323Z,100046.97
2023-01-19T01:29:08.468Z,100038.50
2023-01-19T01:31:35.767Z,100053.13
2023-01-19T01:34:03.031Z,100048.81
2023-01-19T01:36:33.203Z,100035.13
2023-01-19T01:39:00.406Z,100047.28
2023-01-19T01:41:27.729Z,100042.09
2023-01-19T01:43:58.484Z,100047.31
2023-01-19T01:46:26.681Z,100049.03
2023-01-19T01:48:57.633Z,100050.72
2023-01-19T01:51:26.803Z,100037.19
2023-01-19T01:54:16.943Z,100040.53
2023-01-19T01:56:48.671Z,100042.19
2023-01-19T01:59:28.030Z,100035.25
2023-01-19T02:02:15.809Z,100039.56
2023-01-19T02:04:45.975Z,100032.81
2023-01-19T02:07:35.790Z,100031.97
2023-01-19T02:10:24.226Z,100038.69
2023-01-19T02:13:10.621Z,100031.94
2023-01-19T02:15:37.949Z,100025.00
2023-01-19T02:18:06.466Z,100029.31
2023-01-19T02:20:35.914Z,100030.09
2023-01-19T02:23:07.142Z,100028.31
2023-01-19T02:25:34.629Z,100035.16
2023-01-19T02:28:02.352Z,100023.97
2023-01-19T02:30:29.320Z,100028.22
2023-01-19T02:32:56.560Z,100025.69
2023-01-19T02:35:24.534Z,100028.31
2023-01-19T02:37:53.066Z,100018.81
2023-01-19T02:40:22.163Z,100021.44
2023-01-19T02:42:50.169Z,100024.81
2023-01-19T02:45:19.844Z,100024.78
2023-01-19T02:47:47.755Z,100029.06
2023-01-19T02:50:33.237Z,100026.50
2023-01-19T02:53:03.319Z,100035.06
2023-01-19T02:55:31.395Z,100033.28
2023-01-19T02:58:08.517Z,100023.78
2023-01-19T03:00:52.195Z,100025.44
2023-01-19T03:03:30.865Z,100026.31
2023-01-19T03:06:02.443Z,100028.13
2023-01-19T03:08:41.587Z,100031.59
2023-01-19T03:11:10.249Z,100030.75
2023-01-19T03:13:55.898Z,100038.44
2023-01-19T03:16:26.983Z,100028.19
2023-01-19T03:18:56.222Z,100022.22
2023-01-19T03:21:25.614Z,100023.91
2023-01-19T03:23:55.213Z,100010.13
2023-01-19T03:26:25.096Z,100021.38
2023-01-19T03:28:52.294Z,100026.63
2023-01-19T03:31:22.869Z,100024.88
2023-01-19T03:33:58.313Z,100022.31
2023-01-19T03:36:29.803Z,100012.97
2023-01-19T03:38:57.963Z,100013.00
2023-01-19T03:41:25.983Z,100022.59
2023-01-19T03:43:53.614Z,100037.06
2023-01-19T03:46:21.818Z,100023.34
2023-01-19T03:48:49.602Z,100030.22
2023-01-19T03:51:17.752Z,100035.25
2023-01-19T03:53:45.864Z,100030.06
2023-01-19T03:56:22.807Z,100037.72
2023-01-19T03:58:50.035Z,100051.38
2023-01-19T04:01:17.779Z,100028.03
2023-01-19T04:03:44.832Z,100023.69
2023-01-19T04:06:11.402Z,100033.03
2023-01-19T04:08:38.166Z,100024.28
2023-01-19T04:11:04.930Z,100031.16
2023-01-19T04:13:31.639Z,100022.50
2023-01-19T04:15:59.979Z,100019.03
2023-01-19T04:18:27.193Z,100015.59
2023-01-19T04:20:54.637Z,100022.28
2023-01-19T04:23:21.568Z,100013.75
2023-01-19T04:25:48.599Z,100018.84
2023-01-19T04:28:15.706Z,100020.41
2023-01-19T04:30:42.367Z,100021.16
2023-01-19T04:33:09.028Z,100023.72
2023-01-19T04:35:36.223Z,100019.47
2023-01-19T04:38:03.659Z,100022.03
2023-01-19T04:40:30.895Z,100017.81
2023-01-19T04:42:57.710Z,100034.13
2023-01-19T04:45:24.430Z,100023.78
2023-01-19T04:47:51.237Z,100028.97
2023-01-19T04:50:18.044Z,100028.97
2023-01-19T04:52:45.729Z,100035.72
2023-01-19T04:55:12.610Z,100034.00
2023-01-19T04:57:39.700Z,100039.19
2023-01-19T05:00:06.944Z,100033.19
2023-01-19T05:02:35.110Z,100047.78
2023-01-19T05:05:01.772Z,100039.38
2023-01-19T05:07:29.256Z,100043.81
2023-01-19T05:09:55.990Z,100049.69
2023-01-19T05:12:22.708Z,100047.00
2023-01-19T05:14:49.306Z,100052.75
2023-01-19T05:17:16.207Z,100067.97
2023-01-19T05:19:43.099Z,100066.28
2023-01-19T05:22:10.051Z,100061.84
2023-01-19T05:24:36.985Z,100046.31
2023-01-19T05:27:04.193Z,100059.22
2023-01-19T05:29:30.969Z,100074.44
2023-01-19T05:31:58.522Z,100068.44
2023-01-19T05:34:25.255Z,100071.00
2023-01-19T05:36:52.359Z,100063.31
2023-01-19T05:39:20.200Z,100067.53
2023-01-19T05:41:47.509Z,100065.06
2023-01-19T05:44:14.411Z,100059.16
2023-01-19T05:46:41.429Z,100076.31
2023-01-19T05:49:09.026Z,100072.13
2023-01-19T05:51:38.148Z,100075.50
2023-01-19T05:54:05.569Z,100076.38
2023-01-19T05:56:33.604Z,100079.88
2023-01-19T05:59:01.270Z,100078.28
2023-01-19T06:01:28.497Z,100083.25
2023-01-19T06:03:56.161Z,100081.44
2023-01-19T06:06:23.028Z,100077.13
2023-01-19T06:08:50.289Z,100074.56
2023-01-19T06:11:17.505Z,100071.25
2023-01-19T06:13:44.677Z,100072.97
2023-01-19T06:16:11.838Z,100074.88
2023-01-19T06:18:38.878Z,100080.69
2023-01-19T06:21:09.365Z,100086.59
2023-01-19T06:23:36.913Z,100085.94
2023-01-19T06:26:04.053Z,100088.44
2023-01-19T06:28:31.369Z,100094.25
2023-01-19T06:30:58.370Z,100109.84
2023-01-19T06:33:25.632Z,100109.06
2023-01-19T06:35:53.148Z,100120.88
2023-01-19T06:38:20.180Z,100122.59
2023-01-19T06:40:52.826Z,100115.78
2023-01-19T06:43:20.432Z,100130.34
2023-01-19T06:45:48.100Z,100122.78
2023-01-19T06:48:14.867Z,100128.03
2023-01-19T06:50:41.934Z,100127.28
2023-01-19T06:53:09.041Z,100131.66
2023-01-19T06:55:36.518Z,100135.09
2023-01-19T06:58:04.538Z,100128.34
2023-01-19T07:00:31.648Z,100138.56
2023-01-19T07:02:58.935Z,100152.50
2023-01-19T07:05:25.734Z,100151.50
2023-01-19T07:07:53.093Z,100166.06
2023-01-19T07:10:20.019Z,100157.56
2023-01-19T07:12:48.228Z,100162.72
2023-01-19T07:15:15.455Z,100167.13
2023-01-19T07:17:43.468Z,100189.34
2023-01-19T07:20:13.023Z,100189.41
2023-01-19T07:22:41.437Z,100186.78
2023-01-19T07:25:08.351Z,100183.34
2023-01-19T07:27:34.965Z,100186.84
2023-01-19T07:30:02.407Z,100192.00
2023-01-19T07:32:30.018Z,100197.19
2023-01-19T07:34:57.272Z,100191.25
2023-01-19T07:37:24.286Z,100209.38
2023-01-19T07:39:50.805Z,100198.94
2023-01-19T07:42:17.992Z,100198.94
2023-01-19T07:44:44.622Z,100212.81
2023-01-19T07:47:12.624Z,100208.41
2023-01-19T07:49:40.132Z,100211.88
2023-01-19T07:52:06.793Z,100215.28
2023-01-19T07:54:34.568Z,100224.75
2023-01-19T07:57:01.500Z,100225.63
2023-01-19T07:59:30.298Z,100229.00
2023-01-19T08:01:59.286Z,100236.78
2023-01-19T08:04:27.061Z,100236.16
2023-01-19T08:06:55.394Z,100245.38
2023-01-19T08:09:23.151Z,100236.84
2023-01-19T08:11:50.027Z,100244.56
2023-01-19T08:14:17.635Z,100265.25
2023-01-19T08:16:45.194Z,100264.38
2023-01-19T08:19:11.807Z,100264.47
2023-01-19T08:21:39.011Z,100265.41
2023-01-19T08:24:05.863Z,100274.81
2023-01-19T08:26:33.864Z,100279.16
2023-01-19T08:29:02.212Z,100275.75
2023-01-19T08:31:30.305Z,100277.47
2023-01-19T08:33:57.429Z,100280.09
2023-01-19T08:36:25.123Z,100285.28
2023-01-19T08:38:51.640Z,100290.47
2023-01-19T08:41:18.292Z,100288.78
2023-01-19T08:43:45.460Z,100296.56
2023-01-19T08:46:12.543Z,100312.94
2023-01-19T08:48:40.161Z,100302.75
2023-01-19T08:51:06.984Z,100310.53
2023-01-19T08:53:34.727Z,100320.06
2023-01-19T08:56:02.216Z,100315.00
2023-01-19T08:58:29.329Z,100316.63
2023-01-19T09:00:56.149Z,100323.56
2023-01-19T09:03:23.620Z,100324.38
2023-01-19T09:05:51.281Z,100316.78
2023-01-19T09:08:18.299Z,100332.16
2023-01-19T09:10:46.393Z,100334.00
2023-01-19T09:13:13.894Z,100335.78
2023-01-19T09:15:41.405Z,100338.00
2023-01-19T09:18:13.555Z,100336.16
2023-01-19T09:20:42.832Z,100349.00
2023-01-19T09:23:10.798Z,100355.03
2023-01-19T09:25:38.558Z,100369.53
2023-01-19T09:28:09.445Z,100355.84
2023-01-19T09:30:37.557Z,100358.34
2023-01-19T09:33:06.398Z,100355.78
2023-01-19T09:35:34.828Z,100361.16
2023-01-19T09:38:02.060Z,100359.41
2023-01-19T09:40:29.770Z,100357.91
2023-01-19T09:42:59.269Z,100357.97
2023-01-19T09:45:31.444Z,100358.06
2023-01-19T09:47:59.992Z,100365.81
2023-01-19T09:50:28.776Z,100367.41
2023-01-19T09:53:13.712Z,100383.69
2023-01-19T09:55:42.027Z,100397.47
2023-01-19T09:58:19.290Z,100407.84
2023-01-19T10:00:51.569Z,100410.41
2023-01-19T10:03:20.580Z,100391.69
2023-01-19T10:05:51.847Z,100401.88
2023-01-19T10:08:18.910Z,100407.97
2023-01-19T10:10:48.010Z,100407.97
2023-01-19T10:13:27.628Z,100414.25
2023-01-19T10:16:17.598Z,100413.50
2023-01-19T10:18:47.815Z,100415.19
2023-01-19T10:21:20.800Z,100413.44
2023-01-19T10:23:57.058Z,100410.28
2023-01-19T10:26:29.831Z,100413.75
2023-01-19T10:28:59.371Z,100415.47
2023-01-19T10:31:26.511Z,100415.66
2023-01-19T10:33:54.448Z,100413.22
2023-01-19T10:36:25.811Z,100410.75
2023-01-19T10:38:52.415Z,100410.03
2023-01-19T10:41:24.347Z,100411.00
2023-01-19T10:43:59.069Z,100417.03
2023-01-19T10:46:26.425Z,100417.81
2023-01-19T10:48:54.120Z,100408.31
2023-01-19T10:51:21.889Z,100404.09
2023-01-19T10:53:56.495Z,100404.44
2023-01-19T10:56:27.032Z,100403.47
2023-01-19T10:58:53.858Z,100411.19
2023-01-19T11:01:25.532Z,100413.75
2023-01-19T11:03:54.092Z,100414.50
2023-01-19T11:06:25.218Z,100423.09
2023-01-19T11:08:52.825Z,100419.72
2023-01-19T11:11:21.361Z,100425.47
2023-01-19T11:14:09.123Z,100426.00
2023-01-19T11:16:38.118Z,100434.66
2023-01-19T11:19:06.807Z,100432.13
2023-01-19T11:21:33.438Z,100430.31
2023-01-19T11:24:02.647Z,100432.13
2023-01-19T11:26:32.529Z,100439.03
2023-01-19T11:29:01.029Z,100439.63
2023-01-19T11:31:27.688Z,100430.06
2023-01-19T11:33:56.600Z,100431.00
2023-01-19T11:36:25.049Z,100437.13
2023-01-19T11:38:54.320Z,100437.88
2023-01-19T11:41:29.548Z,100430.38
2023-01-19T11:43:58.145Z,100438.16
2023-01-19T11:46:31.743Z,100441.66
2023-01-19T11:49:03.294Z,100439.91
2023-01-19T11:51:36.171Z,100434.69
2023-01-19T11:54:08.656Z,100437.28
2023-01-19T11:56:36.397Z,100439.84
2023-01-19T11:59:04.907Z,100435.59
2023-01-19T12:01:34.307Z,100436.59
2023-01-19T12:04:06.748Z,100435.13
2023-01-19T12:06:37.073Z,100431.75
2023-01-19T12:09:10.487Z,100432.63
2023-01-19T12:11:40.369Z,100439.34
2023-01-19T12:14:15.452Z,100439.53
2023-01-19T12:16:43.711Z,100436.34
2023-01-19T12:19:16.733Z,100432.16
2023-01-19T12:21:48.273Z,100437.44
2023-01-19T12:24:23.574Z,100435.59
2023-01-19T12:26:55.910Z,100438.19
2023-01-19T12:29:29.186Z,100428.56
2023-01-19T12:32:25.232Z,100435.47
2023-01-19T12:34:52.390Z,100436.19
2023-01-19T12:37:31.313Z,100438.72
2023-01-19T12:40:18.711Z,100432.81
2023-01-19T12:42:46.837Z,100436.91
2023-01-19T12:45:16.861Z,100436.91
2023-01-19T12:47:53.559Z,100442.84
2023-01-19T12:50:23.345Z,100438.88
2023-01-19T12:52:57.048Z,100439.06
2023-01-19T12:55:26.688Z,100440.66
2023-01-19T12:58:02.588Z,100442.44
2023-01-19T13:00:33.757Z,100446.59
2023-01-19T13:03:19.905Z,100443.13
2023-01-19T13:05:49.174Z,100443.97
2023-01-19T13:08:17.295Z,100443.19
2023-01-19T13:10:53.157Z,100440.03
2023-01-19T13:13:21.773Z,100434.03
2023-01-19T13:15:48.468Z,100451.16
2023-01-19T13:18:33.267Z,100443.34
2023-01-19T13:21:05.150Z,100432.22
2023-01-19T13:23:50.061Z,100445.06
2023-01-19T13:26:18.964Z,100437.59
2023-01-19T13:28:48.228Z,100441.03
2023-01-19T13:31:16.383Z,100443.53
2023-01-19T13:33:48.993Z,100439.28
2023-01-19T13:36:19.752Z,100439.34
2023-01-19T13:38:47.552Z,100439.44
2023-01-19T13:41:16.934Z,100451.53
2023-01-19T13:43:43.834Z,100446.25
2023-01-19T13:46:14.308Z,100449.88
2023-01-19T13:48:52.285Z,100451.50
2023-01-19T13:51:19.480Z,100458.41
2023-01-19T13:53:59.597Z,100467.81
2023-01-19T13:56:28.551Z,100466.94
2023-01-19T13:59:10.341Z,100474.66
2023-01-19T14:01:38.629Z,100470.47
2023-01-19T14:04:06.188Z,100477.34
2023-01-19T14:06:34.798Z,100472.19
2023-01-19T14:09:07.869Z,100477.38
2023-01-19T14:11:35.384Z,100481.56
2023-01-19T14:14:02.883Z,100473.78
2023-01-19T14:16:31.922Z,100477.44
2023-01-19T14:19:04.109Z,100479.25
2023-01-19T14:21:38.144Z,100486.22
2023-01-19T14:24:23.891Z,100487.09
2023-01-19T14:26:52.109Z,100491.28
2023-01-19T14:29:19.176Z,100496.50
2023-01-19T14:31:52.765Z,100489.53
2023-01-19T14:34:50.057Z,100496.31
2023-01-19T14:37:25.925Z,100498.09
2023-01-19T14:39:53.470Z,100492.03
2023-01-19T14:42:22.429Z,100495.47
2023-01-19T14:44:51.178Z,100501.28
2023-01-19T14:47:38.454Z,100509.78
2023-01-19T14:50:07.609Z,100504.69
2023-01-19T14:52:39.669Z,100511.50
2023-01-19T14:55:08.387Z,100508.94
2023-01-19T14:57:37.258Z,100513.31
2023-01-19T15:00:12.459Z,100509.78
2023-01-19T15:02:39.409Z,100515.69
2023-01-19T15:05:08.752Z,100513.09
2023-01-19T15:07:37.012Z,100520.69
2023-01-19T15:10:03.906Z,100506.88
2023-01-19T15:12:30.684Z,100511.16
2023-01-19T15:14:57.447Z,100515.47
2023-01-19T15:17:27.185Z,100516.34
2023-01-19T15:19:54.602Z,100519.81
2023-01-19T15:22:24.387Z,100515.44
2023-01-19T15:24:51.460Z,100529.91
2023-01-19T15:27:18.170Z,100528.06
2023-01-19T15:29:46.193Z,100534.91
2023-01-19T15:32:13.899Z,100530.63
2023-01-19T15:34:41.646Z,100538.09
2023-01-19T15:37:08.672Z,100537.94
2023-01-19T15:39:35.800Z,100536.22
2023-01-19T15:42:02.753Z,100536.16
2023-01-19T15:44:29.751Z,100532.59
2023-01-19T15:46:57.497Z,100537.69
2023-01-19T15:49:24.927Z,100549.72
2023-01-19T15:51:52.077Z,100555.72
2023-01-19T15:54:19.597Z,100551.47
2023-01-19T15:56:47.107Z,100553.19
2023-01-19T15:59:14.678Z,100554.13
2023-01-19T16:01:42.365Z,100567.63
2023-01-19T16:04:11.733Z,100568.59
2023-01-19T16:06:38.842Z,100565.97
2023-01-19T16:09:06.469Z,100565.91
2023-01-19T16:11:34.894Z,100578.78
2023-01-19T16:14:02.040Z,100572.63
2023-01-19T16:16:29.512Z,100575.28
2023-01-19T16:18:57.000Z,100572.66
2023-01-19T16:21:23.869Z,100590.75
2023-01-19T16:23:51.103Z,100587.34
2023-01-19T16:26:32.476Z,100585.47
2023-01-19T16:29:00.777Z,100581.94
2023-01-19T16:31:28.573Z,100592.16
2023-01-19T16:33:55.470Z,100590.47
2023-01-19T16:36:27.152Z,100584.38
2023-01-19T16:38:58.129Z,100585.13
2023-01-19T16:41:24.762Z,100588.66
2023-01-19T16:43:55.258Z,100592.22
2023-01-19T16:46:26.800Z,100584.53
2023-01-19T16:48:58.400Z,100595.63
2023-01-19T16:51:25.185Z,100600.78
2023-01-19T16:53:52.815Z,100605.19
2023-01-19T16:56:19.416Z,100607.81
2023-01-19T16:58:46.478Z,100613.03
2023-01-19T17:01:20.067Z,100612.03
2023-01-19T17:03:47.209Z,100619.72
2023-01-19T17:06:15.578Z,100611.09
2023-01-19T17:08:42.593Z,100624.88
2023-01-19T17:11:13.267Z,100618.69
2023-01-19T17:13:40.259Z,100622.81
2023-01-19T17:16:08.372Z,100619.16
2023-01-19T17:18:35.601Z,100627.78
2023-01-19T17:21:03.952Z,100617.47
2023-01-19T17:23:31.037Z,100618.34
2023-01-19T17:25:58.529Z,100620.72
2023-01-19T17:28:26.246Z,100616.31
2023-01-19T17:30:53.862Z,100625.84
2023-01-19T17:33:22.523Z,100624.09
2023-01-19T17:35:50.426Z,100630.00
2023-01-19T17:38:17.231Z,100624.09
2023-01-19T17:40:44.277Z,100628.34
2023-01-19T17:43:11.424Z,100636.84
2023-01-19T17:45:38.797Z,100636.06
2023-01-19T17:48:05.463Z,100630.94
2023-01-19T17:50:34.455Z,100635.19
2023-01-19T17:53:01.717Z,100633.44
2023-01-19T17:55:28.397Z,100636.00
2023-01-19T17:57:55.816Z,100634.19
2023-01-19T18:00:23.120Z,100639.34
2023-01-19T18:02:51.236Z,100637.66
2023-01-19T18:05:18.600Z,100644.47
2023-01-19T18:07:46.086Z,100646.19
2023-01-19T18:10:29.455Z,100639.41
2023-01-19T18:12:56.764Z,100645.28
2023-01-19T18:15:23.616Z,100646.06
2023-01-19T18:17:50.235Z,100654.63
2023-01-19T18:20:17.003Z,100653.03
2023-01-19T18:22:44.090Z,100656.50
2023-01-19T18:25:11.665Z,100654.13
2023-01-19T18:27:38.430Z,100649.84
2023-01-19T18:30:06.205Z,100661.09
2023-01-19T18:32:34.437Z,100659.53
2023-01-19T18:35:02.559Z,100655.31
2023-01-19T18:37:29.491Z,100656.19
2023-01-19T18:39:59.699Z,100652.69
2023-01-19T18:42:27.148Z,100654.25
2023-01-19T18:44:54.745Z,100651.59
2023-01-19T18:47:21.869Z,100660.34
2023-01-19T18:49:49.072Z,100657.63
2023-01-19T18:52:16.285Z,100652.44
2023-01-19T18:54:43.604Z,100660.13
2023-01-19T18:57:10.645Z,100654.13
2023-01-19T18:59:37.370Z,100654.13
2023-01-19T19:02:06.730Z,100662.66
2023-01-19T19:04:33.951Z,100661.88
2023-01-19T19:07:01.089Z,100666.25
2023-01-19T19:09:27.923Z,100667.19
2023-01-19T19:11:54.657Z,100675.72
2023-01-19T19:14:22.061Z,100668.91
2023-01-19T19:16:49.830Z,100667.19
2023-01-19T19:19:16.996Z,100675.72
2023-01-19T19:21:44.688Z,100676.59
2023-01-19T19:24:13.424Z,100672.34
2023-01-19T19:26:40.459Z,100676.53
2023-01-19T19:29:07.080Z,100673.84
2023-01-19T19:31:34.706Z,100675.44
2023-01-19T19:34:01.957Z,100677.00
2023-01-19T19:36:28.862Z,100676.16
2023-01-19T19:38:56.225Z,100683.00
2023-01-19T19:41:24.947Z,100686.38
2023-01-19T19:43:51.942Z,100690.66
2023-01-19T19:46:20.128Z,100683.75
2023-01-19T19:48:47.638Z,100694.13
2023-01-19T19:51:26.916Z,100692.38
2023-01-19T19:53:58.704Z,100693.00
2023-01-19T19:56:27.992Z,100697.28
2023-01-19T19:58:56.127Z,100697.44
2023-01-19T20:01:27.607Z,100699.13
2023-01-19T20:03:55.723Z,100695.72
2023-01-19T20:06:23.708Z,100700.81
2023-01-19T20:08:52.108Z,100701.53
2023-01-19T20:11:20.602Z,100696.25
2023-01-19T20:13:48.126Z,100701.38
2023-01-19T20:16:16.337Z,100710.75
2023-01-19T20:18:44.688Z,100716.69
2023-01-19T20:21:19.967Z,100713.28
2023-01-19T20:23:48.121Z,100716.69
2023-01-19T20:26:18.419Z,100713.16
2023-01-19T20:28:45.665Z,100711.25
2023-01-19T20:31:17.540Z,100724.03
2023-01-19T20:33:44.628Z,100722.06
2023-01-19T20:36:11.832Z,100732.34
2023-01-19T20:38:39.728Z,100725.28
2023-01-19T20:41:07.718Z,100731.22
2023-01-19T20:43:34.927Z,100733.72
2023-01-19T20:46:02.097Z,100740.47
2023-01-19T20:48:29.162Z,100745.53
2023-01-19T20:51:00.411Z,100745.38
2023-01-19T20:53:28.910Z,100748.75
2023-01-19T20:55:55.541Z,100753.00
2023-01-19T20:58:23.178Z,100760.56
2023-01-19T21:00:50.629Z,100767.53
2023-01-19T21:03:18.355Z,100769.22
2023-01-19T21:05:47.072Z,100765.69
2023-01-19T21:08:14.791Z,100763.91
2023-01-19T21:10:42.779Z,100768.94
2023-01-19T21:13:09.368Z,100771.63
2023-01-19T21:15:36.069Z,100780.03
2023-01-19T21:18:03.065Z,100790.94
2023-01-19T21:20:30.107Z,100794.34
2023-01-19T21:22:58.938Z,100802.72
2023-01-19T21:25:25.768Z,100802.72
2023-01-19T21:27:53.136Z,100803.59
2023-01-19T21:30:20.468Z,100806.09
2023-01-19T21:32:47.169Z,100805.91
2023-01-19T21:35:14.299Z,100804.16
2023-01-19T21:37:41.533Z,100823.78
2023-01-19T21:40:09.091Z,100818.69
2023-01-19T21:42:36.186Z,100810.94
2023-01-19T21:45:03.300Z,100824.63
2023-01-19T21:47:30.178Z,100829.84
2023-01-19T21:49:56.857Z,100831.50
2023-01-19T21:52:23.548Z,100841.78
2023-01-19T21:54:50.625Z,100832.31
2023-01-19T21:57:19.567Z,100826.31
2023-01-19T21:59:46.363Z,100841.59
2023-01-19T22:02:13.692Z,100839.63
2023-01-19T22:04:40.798Z,100837.88
2023-01-19T22:07:07.576Z,100841.28
2023-01-19T22:09:35.390Z,100841.41
2023-01-19T22:12:02.559Z,100845.69
2023-01-19T22:14:32.297Z,100851.91
2023-01-19T22:16:59.771Z,100854.47
2023-01-19T22:19:26.510Z,100850.50
2023-01-19T22:21:53.337Z,100845.25
2023-01-19T22:24:20.310Z,100852.06
2023-01-19T22:26:47.892Z,100857.38
2023-01-19T22:29:15.021Z,100851.28
2023-01-19T22:31:43.189Z,100854.00
2023-01-19T22:34:10.833Z,100860.66
2023-01-19T22:36:39.011Z,100858.94
2023-01-19T22:39:07.737Z,100860.66
2023-01-19T22:41:36.399Z,100853.81
2023-01-19T22:44:04.614Z,100862.25
2023-01-19T22:46:33.039Z,100861.34
2023-01-19T22:49:00.955Z,100863.88
2023-01-19T22:51:29.787Z,100862.13
2023-01-19T22:53:56.504Z,100868.19
2023-01-19T22:56:24.703Z,100874.88
2023-01-19T22:58:51.972Z,100870.75
2023-01-19T23:01:20.612Z,100886.06
2023-01-19T23:03:47.366Z,100885.97
2023-01-19T23:06:16.025Z,100884.13
2023-01-19T23:08:43.394Z,100885.19
2023-01-19T23:11:13.701Z,100886.25
2023-01-19T23:13:40.909Z,100886.25
2023-01-19T23:16:08.294Z,100891.59
2023-01-19T23:18:35.716Z,100891.59
2023-01-19T23:21:03.683Z,100891.69
2023-01-19T23:23:30.749Z,100893.75
2023-01-19T23:26:01.678Z,100894.63
2023-01-19T23:28:28.414Z,100890.25
2023-01-19T23:30:56.008Z,100898.16
2023-01-19T23:33:23.145Z,100907.63
2023-01-19T23:35:50.244Z,100900.84
2023-01-19T23:38:16.989Z,100902.69
2023-01-19T23:40:44.269Z,100904.38
2023-01-19T23:43:11.287Z,100910.44
2023-01-19T23:45:38.177Z,100906.25
2023-01-19T23:48:07.172Z,100909.75
2023-01-19T23:50:34.123Z,100911.31
2023-01-19T23:53:01.988Z,100909.75
2023-01-19T23:55:29.156Z,100917.44
2023-01-19T23:57:56.929Z,100914.06
